Time;durP1;ratioP1;P1;durP2;ratioP2;P2;SDS_P1;SDS_P2;PMS_P1;PMS_P2;Temp;Humidity;BMP_temperature;BMP_pressure;BME280_temperature;BME280_humidity;BME280_pressure;Samples;Min_cycle;Max_cycle;Signal;HPM_P1;HPM_P2
2021/05/17 00:00:23;;;;;;;96.12;15.41;;;;;;;22.07;37.95;99519.48;504033;103;922454;-69
2021/05/17 00:01:31;;;;;;;85.38;14.12;;;;;;;22.04;38.11;99524.55;502441;103;922833;-70
2021/05/17 00:02:33;;;;;;;95.73;14.41;;;;;;;22.03;38.27;99530.41;503337;103;922611;-69
2021/05/17 00:03:39;;;;;;;89.02;15.25;;;;;;;22.00;38.39;99526.30;503382;103;922553;-69
2021/05/17 00:04:43;;;;;;;86.26;14.66;;;;;;;21.97;38.33;99518.61;504456;103;923880;-69
2021/05/17 00:05:47;;;;;;;88.72;13.46;;;;;;;21.96;38.32;99519.74;502783;103;924464;-69
2021/05/17 00:06:50;;;;;;;89.44;13.45;;;;;;;21.94;38.24;99516.45;503471;103;923948;-71
2021/05/17 00:07:54;;;;;;;92.27;13.58;;;;;;;21.92;38.34;99512.34;501557;103;924397;-70
2021/05/17 00:08:58;;;;;;;77.04;12.63;;;;;;;21.89;38.35;99510.17;501044;103;932997;-70
2021/05/17 00:10:02;;;;;;;88.34;14.30;;;;;;;21.86;38.33;99508.88;501258;103;925658;-69
2021/05/17 00:11:06;;;;;;;84.31;14.16;;;;;;;21.85;38.35;99512.77;501183;103;931764;-70
2021/05/17 00:12:11;;;;;;;87.63;15.36;;;;;;;21.84;38.42;99504.75;500438;103;922635;-69
2021/05/17 00:13:15;;;;;;;77.33;14.87;;;;;;;21.83;38.28;99515.03;501143;103;922945;-71
2021/05/17 00:14:20;;;;;;;82.01;13.85;;;;;;;21.82;38.46;99510.64;499989;103;931756;-70
2021/05/17 00:15:24;;;;;;;80.40;16.24;;;;;;;21.82;38.46;99507.05;481928;108;923965;-70
2021/05/17 00:16:28;;;;;;;85.98;15.67;;;;;;;21.80;38.50;99504.58;475191;108;924538;-71
2021/05/17 00:17:33;;;;;;;84.79;15.43;;;;;;;21.80;38.35;99503.75;487267;106;931596;-71
2021/05/17 00:18:37;;;;;;;91.39;15.03;;;;;;;21.79;38.47;99497.37;487083;106;931712;-69
2021/05/17 00:19:40;;;;;;;103.69;14.93;;;;;;;21.79;38.48;99505.70;490076;106;924723;-71
2021/05/17 00:20:44;;;;;;;97.28;15.88;;;;;;;21.79;38.50;99511.26;492559;106;930539;-69
2021/05/17 00:21:49;;;;;;;91.56;14.99;;;;;;;21.79;38.62;99504.88;483523;108;923943;-69
2021/05/17 00:22:53;;;;;;;96.43;14.50;;;;;;;21.78;38.51;99504.06;483932;106;924109;-70
2021/05/17 00:23:57;;;;;;;86.05;14.32;;;;;;;21.77;38.52;99505.22;491946;106;926383;-67
2021/05/17 00:25:00;;;;;;;97.39;15.19;;;;;;;21.78;38.62;99511.56;493816;106;923815;-69
2021/05/17 00:26:04;;;;;;;82.44;13.59;;;;;;;21.78;38.46;99511.56;491760;106;922722;-70
2021/05/17 00:27:09;;;;;;;81.29;15.42;;;;;;;21.77;38.42;99519.09;491033;106;931950;-70
2021/05/17 00:28:14;;;;;;;80.57;13.07;;;;;;;21.78;38.49;99514.34;491112;106;922412;-69
2021/05/17 00:29:17;;;;;;;94.84;16.26;;;;;;;21.78;38.51;99514.34;489727;106;926856;-71
2021/05/17 00:30:26;;;;;;;95.85;16.13;;;;;;;21.78;38.48;99522.66;489615;106;924496;-72
2021/05/17 00:31:30;;;;;;;85.44;14.58;;;;;;;21.78;38.49;99519.88;490628;106;922662;-70
2021/05/17 00:32:35;;;;;;;87.39;13.75;;;;;;;21.77;38.48;99526.59;489872;106;922869;-70
2021/05/17 00:33:39;;;;;;;110.76;15.84;;;;;;;21.75;38.49;99524.12;489340;106;922621;-70
2021/05/17 00:34:43;;;;;;;102.49;15.39;;;;;;;21.75;38.50;99524.12;488631;106;922894;-71
2021/05/17 00:35:50;;;;;;;96.24;15.98;;;;;;;21.74;38.44;99533.58;488550;106;922979;-71
2021/05/17 00:36:55;;;;;;;81.12;15.59;;;;;;;21.76;38.38;99538.83;488295;106;922584;-70
2021/05/17 00:38:00;;;;;;;86.60;15.96;;;;;;;21.74;38.46;99536.36;489198;106;923372;-69
2021/05/17 00:39:07;;;;;;;103.12;16.15;;;;;;;21.75;38.51;99542.73;488515;106;922468;-69
2021/05/17 00:40:13;;;;;;;90.92;16.01;;;;;;;21.74;38.57;99544.68;488105;106;922759;-70
2021/05/17 00:41:17;;;;;;;84.39;14.73;;;;;;;21.74;38.58;99547.45;487622;106;922563;-71
2021/05/17 00:42:20;;;;;;;83.80;15.12;;;;;;;21.74;38.73;99552.17;489217;106;923273;-70
2021/05/17 00:43:35;;;;;;;101.40;14.26;;;;;;;21.75;38.72;99556.60;493869;106;930277;-70
2021/05/17 00:44:41;;;;;;;82.31;14.75;;;;;;;21.74;38.65;99546.63;490909;106;922544;-70
2021/05/17 00:45:45;;;;;;;97.28;17.09;;;;;;;21.73;38.65;99559.68;492291;106;922778;-70
2021/05/17 00:46:51;;;;;;;92.11;17.19;;;;;;;21.72;38.65;99549.73;491769;106;922947;-70
2021/05/17 00:47:55;;;;;;;86.78;16.09;;;;;;;21.72;38.55;99546.14;492915;106;922592;-70
2021/05/17 00:48:59;;;;;;;74.46;15.85;;;;;;;21.72;38.55;99552.52;482710;108;923017;-70
2021/05/17 00:50:03;;;;;;;103.69;16.94;;;;;;;21.72;38.59;99548.91;481209;106;924587;-69
2021/05/17 00:51:09;;;;;;;94.57;15.63;;;;;;;21.72;38.57;99546.14;490905;106;924213;-70
2021/05/17 00:52:14;;;;;;;92.04;16.19;;;;;;;21.70;38.53;99543.67;489618;106;924554;-70
2021/05/17 00:53:19;;;;;;;85.42;15.76;;;;;;;21.71;38.56;99542.55;489362;106;922465;-69
2021/05/17 00:54:24;;;;;;;110.86;16.84;;;;;;;21.71;38.56;99544.50;489626;106;922531;-71
2021/05/17 00:55:29;;;;;;;88.85;16.68;;;;;;;21.70;38.60;99540.90;490072;106;923087;-70
2021/05/17 00:56:35;;;;;;;92.22;16.03;;;;;;;21.70;38.60;99546.45;488968;106;924433;-69
2021/05/17 00:57:38;;;;;;;94.90;17.82;;;;;;;21.71;38.62;99555.59;483508;106;924036;-67
2021/05/17 00:58:42;;;;;;;95.08;16.43;;;;;;;21.70;38.61;99549.22;484417;107;924021;-70
2021/05/17 00:59:47;;;;;;;107.37;17.90;;;;;;;21.70;38.82;99551.17;487943;106;923951;-70
2021/05/17 01:00:51;;;;;;;86.11;15.01;;;;;;;21.68;38.78;99554.25;471439;108;922828;-70
2021/05/17 01:01:55;;;;;;;89.99;16.37;;;;;;;21.68;38.70;99553.42;478378;107;930403;-68
2021/05/17 01:03:00;;;;;;;98.12;17.33;;;;;;;21.68;38.53;99556.20;479086;108;924483;-70
2021/05/17 01:04:08;;;;;;;94.74;17.53;;;;;;;21.65;38.53;99546.57;475010;109;922898;-70
2021/05/17 01:05:37;;;;;;;100.58;16.34;;;;;;;21.64;38.50;99556.02;472109;109;927490;-71
2021/05/17 01:06:48;;;;;;;81.58;15.60;;;;;;;21.60;38.60;99541.14;493894;103;922549;-70
2021/05/17 01:07:53;;;;;;;91.95;15.69;;;;;;;21.58;38.58;99546.17;504982;103;925201;-69
2021/05/17 01:09:01;;;;;;;91.12;15.47;;;;;;;21.55;38.71;99542.08;493729;105;922592;-70
2021/05/17 01:10:06;;;;;;;92.66;15.99;;;;;;;21.53;38.77;99543.52;494670;103;922941;-70
2021/05/17 01:11:12;;;;;;;91.08;15.15;;;;;;;21.51;38.88;99548.54;503030;103;924431;-70
2021/05/17 01:12:16;;;;;;;89.30;15.09;;;;;;;21.48;38.94;99543.63;503316;103;922960;-70
2021/05/17 01:13:21;;;;;;;117.06;18.08;;;;;;;21.47;38.94;99544.76;501453;103;925722;-71
2021/05/17 01:14:26;;;;;;;97.47;16.17;;;;;;;21.45;38.94;99547.02;502796;103;922631;-70
2021/05/17 01:15:31;;;;;;;120.97;16.12;;;;;;;21.42;39.00;99545.70;501193;103;924020;-71
2021/05/17 01:16:38;;;;;;;91.43;16.09;;;;;;;21.41;38.98;99541.28;502454;103;924442;-70
2021/05/17 01:17:47;;;;;;;88.56;16.33;;;;;;;21.40;39.03;99545.18;501131;103;922496;-70
2021/05/17 01:18:52;;;;;;;99.73;17.17;;;;;;;21.38;39.18;99541.09;500602;103;923946;-70
2021/05/17 01:20:03;;;;;;;86.93;15.34;;;;;;;21.36;39.27;99548.89;499893;103;930547;-70
2021/05/17 01:21:12;;;;;;;100.87;16.10;;;;;;;21.33;39.25;99539.26;500164;103;922463;-70
2021/05/17 01:22:22;;;;;;;98.13;18.67;;;;;;;21.31;39.24;99549.00;499067;103;922628;-71
2021/05/17 01:23:33;;;;;;;96.94;16.82;;;;;;;21.29;39.28;99540.16;498843;103;923921;-70
2021/05/17 01:24:40;;;;;;;98.25;16.85;;;;;;;21.25;39.31;99539.97;502120;103;933457;-71
2021/05/17 01:25:44;;;;;;;92.01;17.13;;;;;;;21.23;39.44;99545.83;504633;103;922539;-70
2021/05/17 01:26:48;;;;;;;89.73;16.75;;;;;;;21.22;39.54;99543.38;504839;103;922416;-71
2021/05/17 01:27:53;;;;;;;89.73;15.89;;;;;;;21.21;39.59;99550.05;505243;103;922501;-70
2021/05/17 01:29:06;;;;;;;99.67;17.61;;;;;;;21.20;39.74;99560.31;503441;103;922738;-70
2021/05/17 01:30:15;;;;;;;92.96;17.78;;;;;;;21.20;39.66;99562.27;503970;103;922717;-70
2021/05/17 01:31:19;;;;;;;94.53;18.68;;;;;;;21.18;40.05;99559.80;503336;103;922387;-71
2021/05/17 01:32:23;;;;;;;95.53;16.00;;;;;;;21.16;40.21;99566.80;504016;103;922456;-70
2021/05/17 01:33:29;;;;;;;82.70;15.85;;;;;;;21.13;40.38;99568.19;503326;103;930519;-72
2021/05/17 01:34:33;;;;;;;93.47;16.87;;;;;;;21.10;40.56;99576.31;503379;103;922973;-72
2021/05/17 01:35:39;;;;;;;91.55;16.84;;;;;;;21.06;40.69;99578.06;503322;103;922444;-71
2021/05/17 01:36:45;;;;;;;101.53;16.92;;;;;;;21.01;40.70;99578.97;502386;103;922325;-71
2021/05/17 01:37:51;;;;;;;93.97;16.65;;;;;;;20.98;40.43;99587.08;502323;103;923991;-69
2021/05/17 01:38:56;;;;;;;91.23;17.64;;;;;;;20.93;40.42;99579.70;502393;103;922551;-70
2021/05/17 01:40:01;;;;;;;95.27;17.89;;;;;;;20.90;40.36;99582.24;501735;103;922520;-71
2021/05/17 01:41:12;;;;;;;89.98;16.83;;;;;;;20.86;40.55;99579.27;500126;101;922474;-70
2021/05/17 01:42:18;;;;;;;89.22;15.66;;;;;;;20.83;40.68;99585.45;489414;105;930342;-71
2021/05/17 01:43:24;;;;;;;96.40;17.02;;;;;;;20.80;40.85;99574.95;491310;103;931242;-70
2021/05/17 01:44:29;;;;;;;88.88;15.93;;;;;;;20.78;41.15;99582.77;501471;103;923261;-70
2021/05/17 01:45:35;;;;;;;86.16;15.39;;;;;;;20.77;41.28;99579.18;499604;103;926029;-70
2021/05/17 01:46:42;;;;;;;77.61;15.71;;;;;;;20.76;41.32;99576.70;499269;103;924023;-71
2021/05/17 01:47:48;;;;;;;102.89;16.39;;;;;;;20.77;41.29;99581.13;497464;103;924002;-70
2021/05/17 01:48:56;;;;;;;106.86;18.02;;;;;;;20.76;41.06;99579.48;499398;103;924056;-71
2021/05/17 01:50:01;;;;;;;95.87;17.02;;;;;;;20.75;40.83;99578.66;504884;103;931892;-70
2021/05/17 01:51:14;;;;;;;94.94;15.34;;;;;;;20.75;40.79;99578.66;503578;103;922612;-71
2021/05/17 01:52:19;;;;;;;95.03;16.66;;;;;;;20.76;40.84;99577.53;504341;103;925279;-71
2021/05/17 01:53:27;;;;;;;84.18;15.72;;;;;;;20.76;40.83;99583.07;502404;103;924394;-70
2021/05/17 01:54:32;;;;;;;88.79;14.85;;;;;;;20.77;40.83;99590.26;503806;103;922428;-71
2021/05/17 01:55:37;;;;;;;82.78;16.36;;;;;;;20.78;40.84;99593.86;501001;103;923950;-71
2021/05/17 01:56:42;;;;;;;99.17;16.92;;;;;;;20.78;40.84;99593.86;501453;103;924083;-71
2021/05/17 01:58:12;;;;;;;86.43;17.26;;;;;;;20.78;41.18;99602.96;501224;103;924424;-70
2021/05/17 01:59:29;;;;;;;90.82;16.12;;;;;;;20.77;41.20;99603.29;501460;103;924351;-69
2021/05/17 02:00:36;;;;;;;109.85;17.81;;;;;;;20.71;41.12;99598.97;501205;103;922468;-70
2021/05/17 02:01:43;;;;;;;88.73;17.47;;;;;;;20.66;41.51;99608.20;501912;103;922585;-70
2021/05/17 02:02:46;;;;;;;101.88;17.74;;;;;;;20.61;41.14;99618.55;500273;103;922429;-69
2021/05/17 02:03:52;;;;;;;90.54;15.71;;;;;;;20.58;41.11;99611.66;500691;103;931957;-69
2021/05/17 02:04:56;;;;;;;95.25;16.86;;;;;;;20.55;41.09;99617.81;497577;103;924067;-70
2021/05/17 02:06:01;;;;;;;81.23;16.04;;;;;;;20.52;41.10;99629.48;498990;103;922757;-70
2021/05/17 02:07:04;;;;;;;79.72;13.91;;;;;;;20.48;41.09;99636.76;497870;103;926426;-71
2021/05/17 02:08:12;;;;;;;84.88;14.62;;;;;;;20.46;41.11;99635.41;502384;103;924453;-69
2021/05/17 02:09:17;;;;;;;101.23;16.28;;;;;;;20.44;41.26;99632.14;503869;103;923926;-71
2021/05/17 02:10:23;;;;;;;90.25;17.23;;;;;;;20.44;42.01;99632.14;503917;103;922693;-70
2021/05/17 02:11:27;;;;;;;100.01;15.69;;;;;;;20.43;42.31;99623.00;505318;101;923991;-69
2021/05/17 02:12:35;;;;;;;93.64;16.39;;;;;;;20.45;42.23;99625.48;501823;103;924086;-68
2021/05/17 02:13:45;;;;;;;;;;;;;;;20.44;42.13;99618.30;506627;103;922065;-71
2021/05/17 02:14:55;;;;;;;80.36;15.23;;;;;;;20.43;41.89;99617.47;493415;105;922590;-71
2021/05/17 02:16:01;;;;;;;88.17;15.18;;;;;;;20.40;41.84;99610.58;494785;103;922675;-71
2021/05/17 02:17:05;;;;;;;92.17;16.12;;;;;;;20.37;41.71;99611.20;501764;103;922563;-71
2021/05/17 02:18:10;;;;;;;87.75;16.82;;;;;;;20.37;41.67;99613.14;502952;103;922576;-71
2021/05/17 02:19:14;;;;;;;81.93;14.55;;;;;;;20.36;41.63;99609.55;501928;103;922909;-70
2021/05/17 02:20:17;;;;;;;77.45;14.57;;;;;;;20.38;41.35;99612.84;501833;103;922581;-71
2021/05/17 02:21:23;;;;;;;82.37;14.19;;;;;;;20.38;41.35;99612.84;500025;103;922559;-71
2021/05/17 02:22:27;;;;;;;87.29;16.56;;;;;;;20.39;41.85;99624.74;499307;103;922490;-70
2021/05/17 02:23:35;;;;;;;107.66;17.72;;;;;;;20.39;42.08;99627.52;496338;103;922482;-71
2021/05/17 02:24:39;;;;;;;84.46;15.94;;;;;;;20.37;42.08;99626.98;488763;105;922875;-71
2021/05/17 02:25:45;;;;;;;81.54;15.66;;;;;;;20.34;41.84;99628.39;490056;103;923111;-70
2021/05/17 02:26:49;;;;;;;91.32;15.07;;;;;;;20.31;41.89;99629.02;495035;105;930516;-70
2021/05/17 02:27:53;;;;;;;74.76;13.16;;;;;;;20.25;42.27;99632.95;495787;103;922518;-69
2021/05/17 02:28:56;;;;;;;79.29;15.33;;;;;;;20.23;42.55;99620.55;505663;103;922376;-69
2021/05/17 02:30:03;;;;;;;66.70;14.30;;;;;;;20.23;42.39;99615.02;503938;103;930433;-70
2021/05/17 02:31:09;;;;;;;97.94;15.22;;;;;;;20.23;42.28;99621.34;493144;105;922482;-71
2021/05/17 02:32:24;;;;;;;81.89;13.52;;;;;;;20.24;42.17;99613.87;483466;105;922613;-71
2021/05/17 02:33:28;;;;;;;88.64;14.75;;;;;;;20.26;42.08;99620.77;485822;105;924131;-71
2021/05/17 02:34:32;;;;;;;73.67;13.66;;;;;;;20.26;42.06;99612.45;493732;103;927190;-70
2021/05/17 02:35:38;;;;;;;89.21;13.40;;;;;;;20.28;42.08;99617.70;502559;103;922617;-71
2021/05/17 02:36:42;;;;;;;91.03;15.88;;;;;;;20.27;42.05;99616.88;503745;103;922519;-70
2021/05/17 02:37:47;;;;;;;78.12;14.75;;;;;;;20.29;42.01;99614.61;502571;103;922701;-70
2021/05/17 02:38:51;;;;;;;76.49;14.69;;;;;;;20.30;42.06;99621.80;501683;103;922389;-70
2021/05/17 02:39:56;;;;;;;73.97;14.46;;;;;;;20.33;42.02;99617.64;500530;103;923076;-70
2021/05/17 02:41:00;;;;;;;66.06;14.72;;;;;;;20.34;41.89;99616.52;501603;103;923983;-70
2021/05/17 02:42:06;;;;;;;67.66;13.07;;;;;;;20.36;41.85;99620.62;500245;103;924435;-70
2021/05/17 02:43:12;;;;;;;87.62;14.11;;;;;;;20.37;41.81;99622.27;499680;103;924036;-70
2021/05/17 02:44:27;;;;;;;72.18;13.66;;;;;;;20.40;41.80;99621.65;497579;103;925158;-71
2021/05/17 02:45:32;;;;;;;64.08;12.72;;;;;;;20.42;41.67;99624.12;499708;103;924379;-70
2021/05/17 02:46:37;;;;;;;63.69;11.72;;;;;;;20.44;41.52;99626.60;498044;103;925739;-70
2021/05/17 02:47:41;;;;;;;74.53;12.22;;;;;;;20.44;41.50;99632.96;497596;103;924014;-71
2021/05/17 02:48:46;;;;;;;63.92;13.98;;;;;;;20.45;41.54;99629.08;498803;103;922482;-71
2021/05/17 02:49:51;;;;;;;80.17;13.89;;;;;;;20.48;41.47;99644.24;504591;103;924602;-70
2021/05/17 02:50:56;;;;;;;76.56;14.13;;;;;;;20.49;41.61;99651.43;503379;103;932369;-71
2021/05/17 02:52:00;;;;;;;76.60;14.11;;;;;;;20.50;41.95;99647.55;501865;103;924284;-69
2021/05/17 02:53:24;;;;;;;70.53;14.07;;;;;;;20.51;42.10;99649.98;502964;103;924437;-68
2021/05/17 02:54:32;;;;;;;73.01;17.25;;;;;;;20.52;41.94;99648.05;502357;103;924889;-72
2021/05/17 02:55:38;;;;;;;68.71;16.26;;;;;;;20.53;41.49;99655.23;503605;103;923924;-70
2021/05/17 02:57:03;;;;;;;66.24;15.31;;;;;;;20.53;41.42;99656.06;502986;103;927137;-71
2021/05/17 02:58:13;;;;;;;71.57;15.18;;;;;;;20.54;41.41;99656.88;503006;103;924456;-71
2021/05/17 02:59:21;;;;;;;65.82;14.26;;;;;;;20.55;41.34;99653.81;502044;103;922561;-70
2021/05/17 03:00:30;;;;;;;79.59;16.90;;;;;;;20.55;41.33;99659.36;495766;103;924423;-69
2021/05/17 03:01:38;;;;;;;79.73;15.61;;;;;;;20.56;41.24;99658.23;492281;105;922683;-70
2021/05/17 03:03:07;;;;;;;67.07;16.19;;;;;;;20.57;41.23;99653.49;493280;103;923982;-71
2021/05/17 03:04:15;;;;;;;53.00;15.73;;;;;;;20.57;41.18;99654.31;493396;103;922752;-69
2021/05/17 03:05:21;;;;;;;71.42;12.76;;;;;;;20.58;41.17;99652.38;498751;103;931014;-71
2021/05/17 03:06:45;;;;;;;66.01;13.86;;;;;;;20.58;41.31;99650.43;499810;103;922900;-72
2021/05/17 03:08:04;;;;;;;73.39;12.47;;;;;;;20.59;41.36;99643.77;498786;103;922716;-69
2021/05/17 03:09:10;;;;;;;71.62;13.54;;;;;;;20.62;41.25;99645.13;499170;103;922556;-70
2021/05/17 03:10:16;;;;;;;58.87;13.18;;;;;;;20.63;41.14;99644.80;498145;103;922523;-70
2021/05/17 03:11:22;;;;;;;76.26;13.81;;;;;;;20.64;41.18;99645.63;493074;105;922551;-71
2021/05/17 03:12:28;;;;;;;64.59;13.37;;;;;;;20.66;41.35;99643.38;494645;103;923079;-70
2021/05/17 03:13:34;;;;;;;61.31;13.48;;;;;;;20.67;41.57;99650.57;503374;103;922378;-69
2021/05/17 03:14:40;;;;;;;76.69;16.28;;;;;;;20.66;41.53;99646.16;495038;105;922807;-69
2021/05/17 03:15:46;;;;;;;71.18;13.67;;;;;;;20.66;41.69;99644.20;496822;103;922653;-70
2021/05/17 03:16:52;;;;;;;67.12;11.92;;;;;;;20.66;41.49;99651.69;501169;103;922498;-67
2021/05/17 03:17:57;;;;;;;79.44;11.86;;;;;;;20.66;41.13;99646.16;502475;103;923342;-70
2021/05/17 03:19:01;;;;;;;53.39;12.46;;;;;;;20.66;40.98;99646.16;503961;103;922719;-70
2021/05/17 03:20:06;;;;;;;55.12;12.44;;;;;;;20.65;40.96;99642.56;503126;103;922704;-70
2021/05/17 03:21:10;;;;;;;67.92;11.99;;;;;;;20.64;40.98;99638.14;501405;103;922632;-70
2021/05/17 03:22:15;;;;;;;62.02;12.64;;;;;;;20.64;40.95;99635.37;501160;103;922922;-71
2021/05/17 03:23:19;;;;;;;64.98;11.16;;;;;;;20.62;40.90;99634.05;502441;103;922788;-70
2021/05/17 03:24:24;;;;;;;67.84;11.45;;;;;;;20.62;41.00;99634.05;500388;103;930030;-69
2021/05/17 03:25:33;;;;;;;53.99;12.12;;;;;;;20.61;40.91;99624.09;498760;103;923999;-71
2021/05/17 03:26:39;;;;;;;56.54;12.44;;;;;;;20.60;40.90;99625.20;500043;103;922512;-70
2021/05/17 03:27:44;;;;;;;45.50;11.05;;;;;;;20.59;40.83;99627.16;499768;103;924114;-70
2021/05/17 03:28:49;;;;;;;64.11;12.04;;;;;;;20.59;40.79;99629.92;498650;103;931846;-69
2021/05/17 03:29:54;;;;;;;54.04;10.60;;;;;;;20.59;41.05;99632.69;498421;103;924045;-69
2021/05/17 03:30:57;;;;;;;58.53;11.31;;;;;;;20.59;40.97;99624.38;497848;103;927135;-69
2021/05/17 03:32:01;;;;;;;71.35;13.16;;;;;;;20.59;40.94;99629.92;498945;103;924428;-70
2021/05/17 03:33:06;;;;;;;59.19;11.38;;;;;;;20.58;41.06;99619.97;503719;103;925388;-70
2021/05/17 03:34:10;;;;;;;53.77;10.69;;;;;;;20.60;41.12;99633.52;504364;103;932001;-74
2021/05/17 03:35:15;;;;;;;51.46;11.17;;;;;;;20.60;41.10;99636.28;503890;103;926369;-69
2021/05/17 03:36:19;;;;;;;60.03;12.03;;;;;;;20.59;41.25;99635.46;502235;103;924015;-70
2021/05/17 03:37:23;;;;;;;58.51;12.70;;;;;;;20.60;41.27;99637.11;502492;103;923620;-70
2021/05/17 03:38:28;;;;;;;60.44;12.76;;;;;;;20.61;41.31;99635.98;501976;103;922514;-69
2021/05/17 03:39:31;;;;;;;57.94;10.50;;;;;;;20.62;41.22;99639.59;493825;105;922506;-70
2021/05/17 03:40:37;;;;;;;48.78;10.19;;;;;;;20.62;41.35;99632.07;495094;103;922577;-68
2021/05/17 03:41:40;;;;;;;43.52;10.88;;;;;;;20.64;41.59;99620.70;501197;103;924246;-69
2021/05/17 03:42:44;;;;;;;51.63;11.11;;;;;;;20.64;41.59;99615.16;501526;103;923271;-70
2021/05/17 03:43:48;;;;;;;43.85;9.83;;;;;;;20.65;41.70;99627.88;502262;103;923398;-69
2021/05/17 03:44:52;;;;;;;48.67;10.02;;;;;;;20.65;41.84;99625.11;500744;103;930458;-69
2021/05/17 03:45:57;;;;;;;56.41;11.72;;;;;;;20.66;41.72;99627.59;500958;103;923201;-68
2021/05/17 03:47:03;;;;;;;63.91;11.94;;;;;;;20.67;41.66;99628.41;499158;103;922548;-70
2021/05/17 03:48:09;;;;;;;62.08;12.79;;;;;;;20.67;41.65;99622.88;501297;103;922651;-68
2021/05/17 03:49:12;;;;;;;52.86;11.19;;;;;;;20.68;41.67;99622.55;498785;103;922575;-70
2021/05/17 03:50:17;;;;;;;48.89;10.25;;;;;;;20.68;41.57;99618.95;498482;103;930312;-69
2021/05/17 03:51:21;;;;;;;47.17;9.83;;;;;;;20.68;41.64;99610.64;498464;103;930401;-70
2021/05/17 03:52:24;;;;;;;56.42;13.24;;;;;;;20.67;41.62;99617.33;497623;103;922474;-71
2021/05/17 03:53:28;;;;;;;52.47;10.09;;;;;;;20.66;41.76;99618.45;498552;103;922493;-70
2021/05/17 03:54:32;;;;;;;61.21;11.48;;;;;;;20.66;41.84;99612.91;503158;103;922498;-71
2021/05/17 03:55:35;;;;;;;60.47;11.12;;;;;;;20.65;41.82;99614.86;502404;103;922894;-70
2021/05/17 03:56:39;;;;;;;60.58;10.43;;;;;;;20.66;41.71;99604.61;503863;103;930511;-72
2021/05/17 03:57:43;;;;;;;57.14;12.19;;;;;;;20.64;41.78;99602.13;504634;103;930496;-69
2021/05/17 03:58:47;;;;;;;37.74;9.31;;;;;;;20.63;41.74;99594.94;503850;103;930601;-68
2021/05/17 03:59:50;;;;;;;47.68;10.29;;;;;;;20.62;41.80;99581.42;501525;103;923103;-70
2021/05/17 04:00:57;;;;;;;47.40;10.72;;;;;;;20.59;41.77;99582.84;503295;103;922467;-69
2021/05/17 04:02:00;;;;;;;48.46;9.67;;;;;;;20.57;41.81;99574.00;502472;103;922475;-69
2021/05/17 04:03:12;;;;;;;42.33;9.94;;;;;;;20.56;42.01;99577.92;502547;103;922684;-70
2021/05/17 04:04:10;;;;;;;45.17;10.08;;;;;;;20.55;41.94;99580.98;499747;103;923086;-72
2021/05/17 04:06:43;;;;;;;35.81;8.77;;;;;;;20.57;41.98;99595.33;501700;103;922643;-70
2021/05/17 04:14:17;;;;;;;46.32;10.88;;;;;;;20.68;41.99;99594.02;498791;103;923989;-68
2021/05/17 04:15:21;;;;;;;54.89;8.51;;;;;;;20.70;42.04;99591.78;498664;103;924066;-69
2021/05/17 04:16:25;;;;;;;39.63;8.92;;;;;;;20.71;42.13;99582.34;496497;103;931004;-70
2021/05/17 04:17:29;;;;;;;42.01;8.35;;;;;;;20.72;41.99;99595.90;499451;103;924031;-69
2021/05/17 04:18:32;;;;;;;35.61;8.52;;;;;;;20.74;41.98;99595.57;505257;103;924481;-68
2021/05/17 04:19:36;;;;;;;46.43;9.15;;;;;;;20.76;41.88;99596.09;503119;103;922611;-70
2021/05/17 04:20:40;;;;;;;43.77;8.42;;;;;;;20.77;41.94;99587.48;504104;103;924034;-69
2021/05/17 04:21:45;;;;;;;50.01;9.51;;;;;;;20.79;41.94;99582.45;501158;103;930205;-69
2021/05/17 04:22:49;;;;;;;42.54;9.02;;;;;;;20.81;41.91;99585.74;501706;103;931928;-68
2021/05/17 04:23:52;;;;;;;38.03;8.99;;;;;;;20.84;41.89;99584.29;501540;103;922790;-68
2021/05/17 04:24:57;;;;;;;41.21;9.09;;;;;;;20.85;41.95;99572.09;503188;103;931780;-69
2021/05/17 04:26:00;;;;;;;35.57;9.66;;;;;;;20.86;41.98;99570.96;502125;103;933193;-69
2021/05/17 04:27:05;;;;;;;43.31;9.22;;;;;;;20.88;41.82;99560.41;500525;103;925782;-69
2021/05/17 04:28:09;;;;;;;36.69;9.08;;;;;;;20.88;41.77;99559.58;500570;103;926138;-69
2021/05/17 04:29:13;;;;;;;36.80;8.19;;;;;;;20.88;41.72;99554.86;501150;103;923944;-69
2021/05/17 04:30:19;;;;;;;44.39;9.01;;;;;;;20.88;41.75;99556.81;501429;103;923058;-66
2021/05/17 04:31:23;;;;;;;42.08;8.18;;;;;;;20.89;41.86;99566.77;500008;103;922971;-70
2021/05/17 04:32:27;;;;;;;37.49;7.84;;;;;;;20.90;41.78;99568.39;491720;105;930338;-68
2021/05/17 04:33:31;;;;;;;37.98;8.04;;;;;;;20.89;41.75;99562.05;492113;103;930484;-69
2021/05/17 04:34:34;;;;;;;36.28;7.97;;;;;;;20.93;41.63;99574.16;499127;103;930341;-71
2021/05/17 04:35:38;;;;;;;37.29;8.43;;;;;;;20.95;41.83;99571.09;499051;103;922930;-70
2021/05/17 04:36:43;;;;;;;27.89;8.15;;;;;;;20.98;41.96;99565.73;498788;103;922471;-69
2021/05/17 04:37:46;;;;;;;37.63;9.24;;;;;;;21.01;42.00;99570.65;498749;103;922487;-70
2021/05/17 04:38:50;;;;;;;37.93;8.39;;;;;;;21.04;41.81;99564.51;497722;103;923343;-70
2021/05/17 04:39:54;;;;;;;27.42;7.67;;;;;;;21.07;41.75;99572.19;502063;103;922409;-68
2021/05/17 04:40:57;;;;;;;45.82;7.96;;;;;;;21.11;41.81;99572.41;503757;103;922784;-70
2021/05/17 04:42:01;;;;;;;43.12;11.34;;;;;;;21.13;41.47;99564.59;504340;103;922623;-66
2021/05/17 04:43:04;;;;;;;37.23;10.20;;;;;;;21.14;41.37;99566.23;504669;103;923045;-67
2021/05/17 04:44:08;;;;;;;37.71;11.55;;;;;;;21.16;41.38;99567.62;504394;103;930254;-68
2021/05/17 04:45:12;;;;;;;29.79;9.49;;;;;;;21.18;41.24;99565.34;502741;103;922699;-70
2021/05/17 04:46:17;;;;;;;39.36;8.95;;;;;;;21.19;41.04;99572.53;503513;103;922983;-69
2021/05/17 04:47:21;;;;;;;29.58;8.51;;;;;;;21.21;40.99;99572.23;503124;103;930282;-67
2021/05/17 04:48:24;;;;;;;29.64;8.28;;;;;;;21.23;41.29;99569.16;501847;103;922523;-69
2021/05/17 04:49:27;;;;;;;38.97;8.28;;;;;;;21.26;41.49;99563.80;502018;103;922611;-70
2021/05/17 04:50:33;;;;;;;37.95;7.02;;;;;;;21.28;41.52;99553.20;501587;103;922540;-69
2021/05/17 04:51:36;;;;;;;32.49;7.04;;;;;;;21.31;41.46;99551.78;501221;103;922477;-70
2021/05/17 04:52:40;;;;;;;30.59;8.33;;;;;;;21.35;41.38;99550.02;502401;103;930638;-70
2021/05/17 04:53:44;;;;;;;29.23;7.88;;;;;;;21.37;40.96;99558.86;499025;103;930577;-69
2021/05/17 04:54:47;;;;;;;29.59;7.84;;;;;;;21.39;40.89;99554.62;501041;103;922478;-68
2021/05/17 04:55:51;;;;;;;41.97;7.73;;;;;;;21.42;40.98;99558.74;501370;103;928759;-68
2021/05/17 04:56:54;;;;;;;27.10;7.19;;;;;;;21.44;40.92;99553.72;500179;103;930486;-69
2021/05/17 04:57:57;;;;;;;24.98;6.12;;;;;;;21.45;40.82;99555.33;499299;103;923438;-70
2021/05/17 04:59:01;;;;;;;32.14;7.47;;;;;;;21.48;40.84;99554.73;499704;103;922987;-68
2021/05/17 05:00:07;;;;;;;35.74;7.31;;;;;;;21.49;40.79;99567.47;498956;103;922692;-68
2021/05/17 05:01:11;;;;;;;35.09;7.08;;;;;;;21.51;40.74;99567.95;498507;103;930356;-69
2021/05/17 05:02:14;;;;;;;33.89;7.86;;;;;;;21.54;40.96;99567.35;498639;103;922461;-68
2021/05/17 05:03:18;;;;;;;27.22;6.69;;;;;;;21.58;41.21;99565.59;497551;103;930494;-69
2021/05/17 05:04:21;;;;;;;24.01;6.95;;;;;;;21.63;41.17;99565.47;503518;103;924013;-67
2021/05/17 05:05:25;;;;;;;20.38;5.89;;;;;;;21.67;41.07;99560.14;502892;103;924425;-68
2021/05/17 05:06:30;;;;;;;29.97;6.56;;;;;;;21.71;40.79;99561.97;504078;103;923310;-65